Nearby METAR Reports

 

EGMC - Southend-On-Sea, United Kingdom
Distance from station: NE 10km
Updated: 19/12/2018 03:50
Few Clouds
Few Clouds
 Wind from SSW
Wind: SSW 8 mph , 13 km/h
Temperature: 7°C
Wind Chill: 5°C
Dew Point: 5°C
Humidity: 87%
Barometer: 1004 hPa
Clouds: Few Clouds
Visibility: 6 miles , 10 km
Cloud details: Few Clouds 671 m
2018/12/19 03:50 EGMC 190350Z 21007KT 9999 FEW022 07/05 Q1004
EGLC - London City Airp, United Kingdom
Distance from station: W 37km
Updated: 19/12/2018 03:50
Clear
Clear
 Wind from S
Wind: S 7 mph , 11 km/h
Temperature: 9°C
Wind Chill: 7°C
Dew Point: 7°C
Humidity: 87%
Barometer: 1004 hPa
Clouds: Clear
Visibility: 6 miles , 10 km
2018/12/19 03:50 EGLC 190350Z AUTO 19006KT 140V230 9999 NCD 09/07 Q1004
EGKB - Biggin Hill, United Kingdom
Distance from station: WSW 45km
Updated: 18/12/2018 22:50
NOT Current
Partly cloudy
Partly cloudy
 Wind from SSW
Wind: SSW 9 mph , 15 km/h
Temperature: 7°C
Wind Chill: 4°C
Dew Point: 6°C
Humidity: 93%
Barometer: 1003 hPa
Clouds: Partly cloudy
Visibility: 6 miles , 10 km
Cloud details: Few Clouds 183 m
Partly cloudy 1097 m
2018/12/18 22:50 EGKB 182250Z 21008KT 9999 FEW006 SCT036 07/06 Q1003
 
EGSS - Stansted Airport, United Kingdom
Distance from station: NNW 48km
Updated: 19/12/2018 03:50
Mostly cloudy
Mostly cloudy
 Wind from S
Wind: S 8 mph , 13 km/h
Temperature: 5°C
Wind Chill: 2°C
Dew Point: 5°C
Humidity: 100%
Barometer: 1003 hPa
Clouds: Mostly cloudy
Visibility: 6 miles , 10 km
Cloud details: Few Clouds 518 m
Partly cloudy 762 m
Mostly cloudy 1372 m
2018/12/19 03:50 EGSS 190350Z AUTO 18007KT 9999 FEW017 SCT025 BKN045 05/05 Q1003
EGKK - London/Gatwick A, United Kingdom
Distance from station: SW 67km
Updated: 19/12/2018 03:50
Mostly cloudy
Mostly cloudy
 Wind from SSW
Wind: SSW 8 mph , 13 km/h
Temperature: 9°C
Wind Chill: 7°C
Dew Point: 8°C
Humidity: 94%
Barometer: 1004 hPa
Clouds: Mostly cloudy
Visibility: 6 miles , 10 km
Cloud details: Mostly cloudy 457 m
2018/12/19 03:50 EGKK 190350Z 20007KT 160V220 9999 BKN015 09/08 Q1004
EGMD - Lydd Airport, United Kingdom
Distance from station: SSE 67km
Updated: 19/12/2018 03:50
Mostly cloudy
Mostly cloudy
 Wind from SW
Wind: SW 18 mph , 30 km/h
Temperature: 9°C
Wind Chill: 5°C
Dew Point: 8°C
Humidity: 94%
Barometer: 1006 hPa
Clouds: Mostly cloudy
Visibility: 6 miles , 10 km
Cloud details: Mostly cloudy 427 m
2018/12/19 03:50 EGMD 190350Z AUTO 22016KT 9999 BKN014/// 09/08 Q1006
 
EGWU - Northolt Raf, United Kingdom
Distance from station: W 69km
Updated: 19/12/2018 03:50
Mostly cloudy
Mostly cloudy
 Wind from S
Wind: S 3 mph , 6 km/h
Temperature: 7°C
Dew Point: 7°C
Humidity: 100%
Barometer: 1003 hPa
Clouds: Mostly cloudy
Visibility: 6 miles , 10 km
Cloud details: Few Clouds 305 m
Partly cloudy 427 m
Mostly cloudy 1402 m
2018/12/19 03:50 EGWU 190350Z AUTO 18003KT 9999 // FEW010/// SCT014/// BKN046/// 07/07 Q1003
EGLL - London/Heathrow, United Kingdom
Distance from station: W 72km
Updated: 19/12/2018 03:50
Light rain, Thunderstorm
Light rain, Thunderstorm
 Wind from SSW
Wind: SSW 7 mph , 11 km/h
Temperature: 8°C
Wind Chill: 6°C
Dew Point: 7°C
Humidity: 93%
Barometer: 1004 hPa
Summary: Light rain
Clouds: Thunderstorm
Visibility: 5 miles , 8 km
Cloud details: Few Clouds 518 m
Partly cloudy 792 m
Mostly cloudy 1189 m
2018/12/19 03:50 EGLL 190350Z AUTO 21006KT 8000 -RA FEW017/// SCT026/// BKN039/// //////CB 08/07 Q1004
EGUW - Wattisham Raf, United Kingdom
Distance from station: NNE 72km
Updated: 19/12/2018 03:50
Clear
Clear
 Wind from SSW
Wind: SSW 10 mph , 17 km/h
Temperature: 6°C
Wind Chill: 3°C
Dew Point: 5°C
Humidity: 93%
Barometer: 1003 hPa
Clouds: Clear
Visibility: 6 miles , 10 km
2018/12/19 03:50 EGUW 190350Z AUTO 20009KT 9999 NCD 06/05 Q1003
 
EGGW - Luton Airport, United Kingdom
Distance from station: WNW 76km
Updated: 19/12/2018 03:50
Light rain, Thunderstorm
Light rain, Thunderstorm
 Wind from S
Wind: S 8 mph , 13 km/h
Temperature: 6°C
Wind Chill: 3°C
Dew Point: 6°C
Humidity: 100%
Barometer: 1003 hPa
Summary: Light rain
Clouds: Thunderstorm
Visibility: 6 miles , 10 km
Cloud details: Partly cloudy 91 m
Mostly cloudy 1158 m
2018/12/19 03:50 EGGW 190350Z AUTO 19007KT 160V220 9999 -RA SCT003/// BKN038/// //////CB 06/06 Q1003
EGSC - Cambridge, United Kingdom
Distance from station: NNW 81km
Updated: 18/12/2018 17:50
NOT Current
Rain, Partly cloudy
Rain, Partly cloudy
 Wind from S
Wind: S 17 mph , 28 km/h
Temperature: 8°C
Wind Chill: 4°C
Dew Point: 5°C
Humidity: 82%
Barometer: 1003 hPa
Summary: Rain
Clouds: Partly cloudy
Visibility: 6 miles , 10 km
Cloud details: Partly cloudy 1341 m
2018/12/18 17:50 EGSC 181750Z 17015KT 9999 RA SCT044 08/05 Q1003